sensor_id;sensor_type;location;lat;lon;timestamp;P1;durP1;ratioP1;P2;durP2;ratioP2
1054;SDS011;516;51.482;7.120;2023-05-29T00:05:05;13.83;;;12.93;;
1054;SDS011;516;51.482;7.120;2023-05-29T00:10:53;12.30;;;11.70;;
1054;SDS011;516;51.482;7.120;2023-05-29T00:26:23;12.70;;;12.00;;
1054;SDS011;516;51.482;7.120;2023-05-29T00:32:10;11.80;;;11.10;;
1054;SDS011;516;51.482;7.120;2023-05-29T00:37:58;13.57;;;11.17;;
1054;SDS011;516;51.482;7.120;2023-05-29T00:43:46;11.73;;;11.03;;
1054;SDS011;516;51.482;7.120;2023-05-29T00:49:34;11.57;;;10.97;;
1054;SDS011;516;51.482;7.120;2023-05-29T00:55:24;11.60;;;10.70;;
1054;SDS011;516;51.482;7.120;2023-05-29T01:01:12;15.33;;;11.07;;
1054;SDS011;516;51.482;7.120;2023-05-29T01:07:00;12.23;;;11.03;;
1054;SDS011;516;51.482;7.120;2023-05-29T01:12:50;11.23;;;9.90;;
1054;SDS011;516;51.482;7.120;2023-05-29T01:25:11;11.80;;;10.67;;
1054;SDS011;516;51.482;7.120;2023-05-29T01:31:25;12.80;;;11.53;;
1054;SDS011;516;51.482;7.120;2023-05-29T01:37:13;11.00;;;10.07;;
1054;SDS011;516;51.482;7.120;2023-05-29T01:43:01;13.33;;;10.00;;
1054;SDS011;516;51.482;7.120;2023-05-29T01:48:49;11.57;;;10.57;;
1054;SDS011;516;51.482;7.120;2023-05-29T01:54:37;12.60;;;10.23;;
1054;SDS011;516;51.482;7.120;2023-05-29T02:00:25;11.27;;;9.77;;
1054;SDS011;516;51.482;7.120;2023-05-29T02:06:13;10.07;;;9.00;;
1054;SDS011;516;51.482;7.120;2023-05-29T02:12:01;9.90;;;8.93;;
1054;SDS011;516;51.482;7.120;2023-05-29T02:21:17;10.00;;;9.00;;
1054;SDS011;516;51.482;7.120;2023-05-29T02:27:04;9.20;;;8.20;;
1054;SDS011;516;51.482;7.120;2023-05-29T02:32:52;14.70;;;8.23;;
1054;SDS011;516;51.482;7.120;2023-05-29T02:38:40;16.60;;;9.73;;
1054;SDS011;516;51.482;7.120;2023-05-29T02:44:28;9.07;;;8.10;;
1054;SDS011;516;51.482;7.120;2023-05-29T02:50:16;15.70;;;8.63;;
1054;SDS011;516;51.482;7.120;2023-05-29T02:56:05;13.40;;;9.10;;
1054;SDS011;516;51.482;7.120;2023-05-29T03:01:55;10.50;;;7.97;;
1054;SDS011;516;51.482;7.120;2023-05-29T03:07:43;12.23;;;7.87;;
1054;SDS011;516;51.482;7.120;2023-05-29T03:13:30;14.50;;;7.77;;
1054;SDS011;516;51.482;7.120;2023-05-29T03:19:12;21.03;;;8.27;;
1054;SDS011;516;51.482;7.120;2023-05-29T03:25:01;17.43;;;8.57;;
1054;SDS011;516;51.482;7.120;2023-05-29T03:30:49;13.80;;;8.10;;
1054;SDS011;516;51.482;7.120;2023-05-29T03:36:38;15.80;;;9.30;;
1054;SDS011;516;51.482;7.120;2023-05-29T03:42:26;13.17;;;8.37;;
1054;SDS011;516;51.482;7.120;2023-05-29T03:48:14;13.60;;;7.10;;
1054;SDS011;516;51.482;7.120;2023-05-29T03:54:02;14.30;;;6.90;;
1054;SDS011;516;51.482;7.120;2023-05-29T03:59:50;13.77;;;8.07;;
1054;SDS011;516;51.482;7.120;2023-05-29T04:05:38;14.27;;;10.30;;
1054;SDS011;516;51.482;7.120;2023-05-29T04:11:25;8.67;;;7.93;;
1054;SDS011;516;51.482;7.120;2023-05-29T04:27:04;20.60;;;8.67;;
1054;SDS011;516;51.482;7.120;2023-05-29T04:32:51;11.47;;;8.00;;
1054;SDS011;516;51.482;7.120;2023-05-29T04:38:40;13.60;;;8.27;;
1054;SDS011;516;51.482;7.120;2023-05-29T04:44:28;17.23;;;7.37;;
1054;SDS011;516;51.482;7.120;2023-05-29T04:50:16;13.30;;;8.87;;
1054;SDS011;516;51.482;7.120;2023-05-29T04:56:04;15.37;;;8.80;;
1054;SDS011;516;51.482;7.120;2023-05-29T05:01:52;14.50;;;8.77;;
1054;SDS011;516;51.482;7.120;2023-05-29T05:07:40;12.73;;;9.77;;
1054;SDS011;516;51.482;7.120;2023-05-29T05:13:27;10.03;;;9.03;;
1054;SDS011;516;51.482;7.120;2023-05-29T05:19:12;14.60;;;10.73;;
1054;SDS011;516;51.482;7.120;2023-05-29T05:25:00;12.10;;;10.63;;
1054;SDS011;516;51.482;7.120;2023-05-29T05:30:48;13.63;;;10.03;;
1054;SDS011;516;51.482;7.120;2023-05-29T05:36:35;12.83;;;10.30;;
1054;SDS011;516;51.482;7.120;2023-05-29T05:42:23;12.13;;;11.03;;
1054;SDS011;516;51.482;7.120;2023-05-29T05:48:11;16.43;;;11.33;;
1054;SDS011;516;51.482;7.120;2023-05-29T05:53:59;12.10;;;10.90;;
1054;SDS011;516;51.482;7.120;2023-05-29T05:59:47;11.60;;;10.80;;
1054;SDS011;516;51.482;7.120;2023-05-29T06:05:35;13.23;;;11.40;;
1054;SDS011;516;51.482;7.120;2023-05-29T06:11:24;12.63;;;11.53;;
1054;SDS011;516;51.482;7.120;2023-05-29T06:27:04;14.20;;;11.77;;
1054;SDS011;516;51.482;7.120;2023-05-29T06:32:53;16.80;;;12.50;;
1054;SDS011;516;51.482;7.120;2023-05-29T06:38:45;15.50;;;11.47;;
1054;SDS011;516;51.482;7.120;2023-05-29T06:44:34;14.37;;;12.60;;
1054;SDS011;516;51.482;7.120;2023-05-29T06:50:22;14.43;;;13.10;;
1054;SDS011;516;51.482;7.120;2023-05-29T06:56:10;13.63;;;12.40;;
1054;SDS011;516;51.482;7.120;2023-05-29T07:01:57;14.07;;;12.63;;
1054;SDS011;516;51.482;7.120;2023-05-29T07:07:45;16.87;;;15.63;;
1054;SDS011;516;51.482;7.120;2023-05-29T07:13:33;15.70;;;14.20;;
1054;SDS011;516;51.482;7.120;2023-05-29T07:19:13;16.73;;;14.90;;
1054;SDS011;516;51.482;7.120;2023-05-29T07:25:02;16.43;;;13.30;;
1054;SDS011;516;51.482;7.120;2023-05-29T07:30:50;15.70;;;14.17;;
1054;SDS011;516;51.482;7.120;2023-05-29T07:36:44;14.40;;;13.40;;
1054;SDS011;516;51.482;7.120;2023-05-29T07:43:20;14.47;;;13.37;;
1054;SDS011;516;51.482;7.120;2023-05-29T07:49:08;17.13;;;15.43;;
1054;SDS011;516;51.482;7.120;2023-05-29T07:54:55;17.47;;;16.10;;
1054;SDS011;516;51.482;7.120;2023-05-29T08:00:43;15.20;;;14.10;;
1054;SDS011;516;51.482;7.120;2023-05-29T08:06:32;14.90;;;13.47;;
1054;SDS011;516;51.482;7.120;2023-05-29T08:12:19;18.17;;;15.23;;
1054;SDS011;516;51.482;7.120;2023-05-29T08:21:32;14.87;;;13.47;;
1054;SDS011;516;51.482;7.120;2023-05-29T08:27:20;14.83;;;13.73;;
1054;SDS011;516;51.482;7.120;2023-05-29T08:33:08;14.80;;;13.27;;
1054;SDS011;516;51.482;7.120;2023-05-29T08:38:56;17.17;;;15.50;;
1054;SDS011;516;51.482;7.120;2023-05-29T08:44:44;15.67;;;14.13;;
1054;SDS011;516;51.482;7.120;2023-05-29T08:50:39;16.30;;;15.13;;
1054;SDS011;516;51.482;7.120;2023-05-29T08:57:07;16.40;;;14.67;;
1054;SDS011;516;51.482;7.120;2023-05-29T09:02:55;17.20;;;15.70;;
1054;SDS011;516;51.482;7.120;2023-05-29T09:08:43;17.43;;;15.93;;
1054;SDS011;516;51.482;7.120;2023-05-29T09:14:37;17.53;;;16.13;;
1054;SDS011;516;51.482;7.120;2023-05-29T09:23:51;18.97;;;17.07;;
1054;SDS011;516;51.482;7.120;2023-05-29T09:29:41;16.20;;;15.00;;
1054;SDS011;516;51.482;7.120;2023-05-29T09:36:03;18.03;;;16.60;;
1054;SDS011;516;51.482;7.120;2023-05-29T09:42:21;18.67;;;16.77;;
1054;SDS011;516;51.482;7.120;2023-05-29T09:48:12;15.37;;;14.13;;
1054;SDS011;516;51.482;7.120;2023-05-29T09:54:12;16.50;;;15.03;;
1054;SDS011;516;51.482;7.120;2023-05-29T10:00:38;16.60;;;15.30;;
1054;SDS011;516;51.482;7.120;2023-05-29T10:06:27;16.00;;;14.80;;
1054;SDS011;516;51.482;7.120;2023-05-29T10:12:16;15.70;;;14.60;;
1054;SDS011;516;51.482;7.120;2023-05-29T10:18:21;17.30;;;14.70;;
1054;SDS011;516;51.482;7.120;2023-05-29T10:24:13;14.90;;;13.73;;
1054;SDS011;516;51.482;7.120;2023-05-29T10:40:08;16.60;;;15.10;;
1054;SDS011;516;51.482;7.120;2023-05-29T10:46:00;16.93;;;15.40;;
1054;SDS011;516;51.482;7.120;2023-05-29T10:51:48;18.00;;;16.20;;
1054;SDS011;516;51.482;7.120;2023-05-29T10:57:35;16.90;;;15.60;;
1054;SDS011;516;51.482;7.120;2023-05-29T11:03:24;16.10;;;14.70;;
1054;SDS011;516;51.482;7.120;2023-05-29T11:09:38;16.57;;;15.10;;
1054;SDS011;516;51.482;7.120;2023-05-29T11:15:27;19.33;;;17.60;;
1054;SDS011;516;51.482;7.120;2023-05-29T11:21:29;16.10;;;14.70;;
1054;SDS011;516;51.482;7.120;2023-05-29T11:30:43;15.90;;;14.60;;
1054;SDS011;516;51.482;7.120;2023-05-29T11:36:32;16.80;;;15.40;;
1054;SDS011;516;51.482;7.120;2023-05-29T11:42:20;17.67;;;16.40;;
1054;SDS011;516;51.482;7.120;2023-05-29T11:48:08;16.07;;;14.87;;
1054;SDS011;516;51.482;7.120;2023-05-29T11:53:55;15.97;;;14.77;;
1054;SDS011;516;51.482;7.120;2023-05-29T11:59:46;16.43;;;14.90;;
1054;SDS011;516;51.482;7.120;2023-05-29T12:05:45;16.70;;;15.40;;
1054;SDS011;516;51.482;7.120;2023-05-29T12:11:42;16.60;;;15.50;;
1054;SDS011;516;51.482;7.120;2023-05-29T12:17:29;14.50;;;13.50;;
1054;SDS011;516;51.482;7.120;2023-05-29T12:23:17;14.43;;;13.23;;
1054;SDS011;516;51.482;7.120;2023-05-29T12:25:47;14.63;;;13.57;;
1054;SDS011;516;51.482;7.120;2023-05-29T12:28:16;15.20;;;14.00;;
1054;SDS011;516;51.482;7.120;2023-05-29T12:34:11;14.83;;;13.63;;
1054;SDS011;516;51.482;7.120;2023-05-29T12:40:09;14.43;;;13.33;;
1054;SDS011;516;51.482;7.120;2023-05-29T12:46:26;14.13;;;13.13;;
1054;SDS011;516;51.482;7.120;2023-05-29T12:52:14;13.93;;;12.93;;
1054;SDS011;516;51.482;7.120;2023-05-29T12:58:03;14.70;;;13.50;;
1054;SDS011;516;51.482;7.120;2023-05-29T13:03:51;14.40;;;13.40;;
1054;SDS011;516;51.482;7.120;2023-05-29T13:09:39;14.97;;;13.47;;
1054;SDS011;516;51.482;7.120;2023-05-29T13:15:27;14.30;;;13.00;;
1054;SDS011;516;51.482;7.120;2023-05-29T13:21:15;13.70;;;12.70;;
1054;SDS011;516;51.482;7.120;2023-05-29T13:30:25;14.53;;;13.43;;
1054;SDS011;516;51.482;7.120;2023-05-29T13:36:13;16.73;;;15.30;;
1054;SDS011;516;51.482;7.120;2023-05-29T13:42:01;18.80;;;17.50;;
1054;SDS011;516;51.482;7.120;2023-05-29T13:47:11;19.40;;;18.10;;
1054;SDS011;516;51.482;7.120;2023-05-29T13:52:59;26.03;;;22.37;;
1054;SDS011;516;51.482;7.120;2023-05-29T13:58:47;15.20;;;13.80;;
1054;SDS011;516;51.482;7.120;2023-05-29T14:04:16;15.27;;;14.20;;
1054;SDS011;516;51.482;7.120;2023-05-29T14:10:04;14.63;;;13.20;;
1054;SDS011;516;51.482;7.120;2023-05-29T14:15:52;15.70;;;14.50;;
1054;SDS011;516;51.482;7.120;2023-05-29T14:21:41;15.87;;;14.67;;
1054;SDS011;516;51.482;7.120;2023-05-29T14:30:49;16.40;;;15.03;;
1054;SDS011;516;51.482;7.120;2023-05-29T14:36:37;16.50;;;15.03;;
1054;SDS011;516;51.482;7.120;2023-05-29T14:42:24;13.33;;;12.33;;
1054;SDS011;516;51.482;7.120;2023-05-29T14:48:12;14.10;;;13.00;;
1054;SDS011;516;51.482;7.120;2023-05-29T14:54:00;13.33;;;12.53;;
1054;SDS011;516;51.482;7.120;2023-05-29T14:59:47;14.13;;;12.70;;
1054;SDS011;516;51.482;7.120;2023-05-29T15:05:37;14.47;;;12.93;;
1054;SDS011;516;51.482;7.120;2023-05-29T15:11:25;14.60;;;13.60;;
1054;SDS011;516;51.482;7.120;2023-05-29T15:17:13;14.90;;;13.70;;
1054;SDS011;516;51.482;7.120;2023-05-29T15:23:00;13.40;;;12.50;;
1054;SDS011;516;51.482;7.120;2023-05-29T15:28:45;12.83;;;11.97;;
1054;SDS011;516;51.482;7.120;2023-05-29T15:34:33;13.67;;;12.60;;
1054;SDS011;516;51.482;7.120;2023-05-29T15:40:21;13.70;;;12.40;;
1054;SDS011;516;51.482;7.120;2023-05-29T15:46:09;14.47;;;13.37;;
1054;SDS011;516;51.482;7.120;2023-05-29T15:51:57;14.13;;;13.03;;
1054;SDS011;516;51.482;7.120;2023-05-29T15:57:45;13.87;;;12.80;;
1054;SDS011;516;51.482;7.120;2023-05-29T16:03:34;14.50;;;13.50;;
1054;SDS011;516;51.482;7.120;2023-05-29T16:09:22;14.67;;;13.47;;
1054;SDS011;516;51.482;7.120;2023-05-29T16:15:10;13.87;;;12.80;;
1054;SDS011;516;51.482;7.120;2023-05-29T16:20:57;14.80;;;13.43;;
1054;SDS011;516;51.482;7.120;2023-05-29T16:36:36;13.90;;;13.00;;
1054;SDS011;516;51.482;7.120;2023-05-29T16:42:23;13.90;;;12.60;;
1054;SDS011;516;51.482;7.120;2023-05-29T16:48:12;15.00;;;13.77;;
1054;SDS011;516;51.482;7.120;2023-05-29T16:53:59;15.57;;;14.17;;
1054;SDS011;516;51.482;7.120;2023-05-29T16:59:47;15.40;;;13.87;;
1054;SDS011;516;51.482;7.120;2023-05-29T17:05:35;15.40;;;13.97;;
1054;SDS011;516;51.482;7.120;2023-05-29T17:11:23;14.90;;;13.80;;
1054;SDS011;516;51.482;7.120;2023-05-29T17:17:11;15.60;;;14.50;;
1054;SDS011;516;51.482;7.120;2023-05-29T17:22:59;15.87;;;14.77;;
1054;SDS011;516;51.482;7.120;2023-05-29T17:29:03;15.60;;;14.50;;
1054;SDS011;516;51.482;7.120;2023-05-29T17:34:50;20.63;;;18.47;;
1054;SDS011;516;51.482;7.120;2023-05-29T17:40:39;15.60;;;14.40;;
1054;SDS011;516;51.482;7.120;2023-05-29T17:46:26;18.83;;;17.43;;
1054;SDS011;516;51.482;7.120;2023-05-29T17:52:13;18.50;;;17.30;;
1054;SDS011;516;51.482;7.120;2023-05-29T17:58:01;18.13;;;17.03;;
1054;SDS011;516;51.482;7.120;2023-05-29T18:03:49;17.97;;;16.97;;
1054;SDS011;516;51.482;7.120;2023-05-29T18:09:37;17.37;;;16.37;;
1054;SDS011;516;51.482;7.120;2023-05-29T18:15:25;17.67;;;16.87;;
1054;SDS011;516;51.482;7.120;2023-05-29T18:21:12;18.10;;;17.20;;
1054;SDS011;516;51.482;7.120;2023-05-29T18:36:38;18.60;;;17.40;;
1054;SDS011;516;51.482;7.120;2023-05-29T18:42:25;18.10;;;17.00;;
1054;SDS011;516;51.482;7.120;2023-05-29T18:48:13;19.90;;;18.60;;
1054;SDS011;516;51.482;7.120;2023-05-29T18:54:01;19.33;;;17.80;;
1054;SDS011;516;51.482;7.120;2023-05-29T18:59:49;22.30;;;20.70;;
1054;SDS011;516;51.482;7.120;2023-05-29T19:05:39;20.33;;;18.97;;
1054;SDS011;516;51.482;7.120;2023-05-29T19:11:28;23.00;;;21.03;;
1054;SDS011;516;51.482;7.120;2023-05-29T19:17:16;37.73;;;33.93;;
1054;SDS011;516;51.482;7.120;2023-05-29T19:23:04;20.73;;;18.93;;
1054;SDS011;516;51.482;7.120;2023-05-29T19:28:47;19.87;;;18.73;;
1054;SDS011;516;51.482;7.120;2023-05-29T19:34:36;20.77;;;19.30;;
1054;SDS011;516;51.482;7.120;2023-05-29T19:40:26;21.33;;;19.93;;
1054;SDS011;516;51.482;7.120;2023-05-29T19:46:14;24.10;;;21.93;;
1054;SDS011;516;51.482;7.120;2023-05-29T19:52:02;20.83;;;19.40;;
1054;SDS011;516;51.482;7.120;2023-05-29T19:57:50;21.40;;;19.60;;
1054;SDS011;516;51.482;7.120;2023-05-29T20:03:38;17.17;;;16.10;;
1054;SDS011;516;51.482;7.120;2023-05-29T20:09:26;16.73;;;15.73;;
1054;SDS011;516;51.482;7.120;2023-05-29T20:15:14;18.10;;;16.87;;
1054;SDS011;516;51.482;7.120;2023-05-29T20:21:01;18.43;;;16.77;;
1054;SDS011;516;51.482;7.120;2023-05-29T20:36:37;17.07;;;16.10;;
1054;SDS011;516;51.482;7.120;2023-05-29T20:42:25;17.33;;;15.90;;
1054;SDS011;516;51.482;7.120;2023-05-29T20:48:13;18.83;;;17.33;;
1054;SDS011;516;51.482;7.120;2023-05-29T20:54:01;18.83;;;17.33;;
1054;SDS011;516;51.482;7.120;2023-05-29T20:59:50;18.30;;;16.60;;
1054;SDS011;516;51.482;7.120;2023-05-29T21:05:37;17.73;;;16.30;;
1054;SDS011;516;51.482;7.120;2023-05-29T21:11:27;18.13;;;16.93;;
1054;SDS011;516;51.482;7.120;2023-05-29T21:17:15;16.33;;;15.33;;
1054;SDS011;516;51.482;7.120;2023-05-29T21:23:02;19.67;;;17.73;;
1054;SDS011;516;51.482;7.120;2023-05-29T21:28:51;18.20;;;16.93;;
1054;SDS011;516;51.482;7.120;2023-05-29T21:34:39;18.00;;;16.50;;
1054;SDS011;516;51.482;7.120;2023-05-29T21:40:27;16.73;;;15.43;;
1054;SDS011;516;51.482;7.120;2023-05-29T21:46:14;18.17;;;16.93;;
1054;SDS011;516;51.482;7.120;2023-05-29T21:52:03;18.60;;;17.20;;
1054;SDS011;516;51.482;7.120;2023-05-29T21:57:51;18.13;;;16.80;;
1054;SDS011;516;51.482;7.120;2023-05-29T22:03:39;18.27;;;16.80;;
1054;SDS011;516;51.482;7.120;2023-05-29T22:09:27;16.87;;;15.67;;
1054;SDS011;516;51.482;7.120;2023-05-29T22:15:15;15.47;;;14.53;;
1054;SDS011;516;51.482;7.120;2023-05-29T22:21:04;17.47;;;16.03;;
1054;SDS011;516;51.482;7.120;2023-05-29T22:36:37;16.23;;;15.13;;
1054;SDS011;516;51.482;7.120;2023-05-29T22:42:25;17.20;;;16.23;;
1054;SDS011;516;51.482;7.120;2023-05-29T22:48:13;17.30;;;16.13;;
1054;SDS011;516;51.482;7.120;2023-05-29T22:54:04;16.60;;;15.70;;
1054;SDS011;516;51.482;7.120;2023-05-29T22:59:52;16.80;;;15.70;;
1054;SDS011;516;51.482;7.120;2023-05-29T23:05:40;17.17;;;16.00;;
1054;SDS011;516;51.482;7.120;2023-05-29T23:11:28;16.80;;;15.60;;
1054;SDS011;516;51.482;7.120;2023-05-29T23:17:16;17.20;;;16.20;;
1054;SDS011;516;51.482;7.120;2023-05-29T23:23:04;16.83;;;15.43;;
1054;SDS011;516;51.482;7.120;2023-05-29T23:28:46;18.13;;;16.70;;
1054;SDS011;516;51.482;7.120;2023-05-29T23:34:34;17.53;;;16.33;;
1054;SDS011;516;51.482;7.120;2023-05-29T23:40:22;16.30;;;15.27;;
1054;SDS011;516;51.482;7.120;2023-05-29T23:46:10;15.70;;;14.73;;
1054;SDS011;516;51.482;7.120;2023-05-29T23:51:59;16.60;;;15.40;;
1054;SDS011;516;51.482;7.120;2023-05-29T23:57:49;16.30;;;15.23;;
